createdAt,value
2019-01-29T00:01:35.462Z,10.60
2019-01-29T00:04:07.329Z,9.80
2019-01-29T00:06:40.110Z,10.67
2019-01-29T00:09:13.193Z,9.70
2019-01-29T00:11:47.411Z,10.10
2019-01-29T00:14:18.682Z,9.90
2019-01-29T00:16:50.621Z,9.13
2019-01-29T00:19:23.968Z,10.67
2019-01-29T00:21:55.601Z,9.87
2019-01-29T00:24:27.937Z,9.73
2019-01-29T00:27:00.000Z,9.70
2019-01-29T00:29:33.025Z,10.23
2019-01-29T00:32:05.004Z,9.97
2019-01-29T00:34:36.217Z,10.77
2019-01-29T00:37:08.323Z,9.97
2019-01-29T00:39:42.182Z,12.23
2019-01-29T00:42:13.338Z,10.77
2019-01-29T00:44:46.550Z,11.27
2019-01-29T00:47:18.626Z,11.03
2019-01-29T00:49:54.976Z,11.03
2019-01-29T00:52:26.796Z,10.80
2019-01-29T00:54:59.729Z,11.60
2019-01-29T00:57:31.090Z,12.00
2019-01-29T01:00:04.320Z,11.93
2019-01-29T01:02:35.207Z,11.33
2019-01-29T01:05:08.321Z,11.87
2019-01-29T01:07:43.971Z,11.93
2019-01-29T01:10:19.459Z,11.43
2019-01-29T01:12:51.751Z,12.10
2019-01-29T01:15:27.707Z,11.97
2019-01-29T01:17:59.481Z,12.83
2019-01-29T01:20:30.916Z,12.13
2019-01-29T01:23:02.817Z,12.10
2019-01-29T01:25:37.954Z,12.00
2019-01-29T01:28:09.808Z,13.00
2019-01-29T01:30:42.614Z,12.20
2019-01-29T01:33:13.500Z,12.10
2019-01-29T01:35:44.911Z,11.37
2019-01-29T01:38:16.411Z,11.30
2019-01-29T01:40:49.334Z,10.77
2019-01-29T01:43:23.182Z,10.90
2019-01-29T01:45:54.921Z,11.00
2019-01-29T01:48:25.428Z,10.93
2019-01-29T01:50:57.870Z,10.50
2019-01-29T01:53:30.202Z,10.77
2019-01-29T01:56:05.062Z,11.47
2019-01-29T01:58:36.358Z,10.83
2019-01-29T02:01:10.497Z,10.63
2019-01-29T02:03:41.280Z,11.17
2019-01-29T02:06:15.673Z,11.07
2019-01-29T02:08:49.520Z,11.73
2019-01-29T02:11:24.556Z,10.83
2019-01-29T02:13:57.407Z,11.70
2019-01-29T02:16:28.833Z,11.57
2019-01-29T02:19:03.159Z,11.27
2019-01-29T02:21:35.291Z,10.00
2019-01-29T02:24:09.911Z,10.27
2019-01-29T02:26:43.329Z,10.33
2019-01-29T02:29:14.763Z,10.80
2019-01-29T02:31:50.492Z,9.97
2019-01-29T02:34:22.271Z,9.60
2019-01-29T02:36:55.022Z,9.03
2019-01-29T02:39:27.402Z,9.07
2019-01-29T02:42:01.382Z,8.47
2019-01-29T02:44:37.465Z,8.77
2019-01-29T02:47:11.602Z,9.50
2019-01-29T02:49:44.387Z,9.00
2019-01-29T02:52:16.798Z,9.33
2019-01-29T02:54:51.078Z,9.30
2019-01-29T02:57:23.506Z,9.83
2019-01-29T02:59:54.696Z,9.53
2019-01-29T03:02:27.294Z,9.60
2019-01-29T03:05:00.596Z,9.67
2019-01-29T03:07:34.399Z,9.63
2019-01-29T03:10:10.212Z,9.80
2019-01-29T03:12:43.825Z,8.87
2019-01-29T03:15:18.720Z,9.47
2019-01-29T03:17:53.608Z,9.40
2019-01-29T03:20:26.287Z,8.93
2019-01-29T03:23:01.093Z,9.13
2019-01-29T03:25:33.164Z,9.17
2019-01-29T03:28:07.355Z,9.10
2019-01-29T03:30:39.277Z,9.07
2019-01-29T03:33:11.860Z,8.87
2019-01-29T03:35:51.369Z,8.63
2019-01-29T03:38:22.343Z,8.67
2019-01-29T03:40:52.708Z,8.37
2019-01-29T03:43:26.926Z,8.67
2019-01-29T03:45:58.949Z,8.23
2019-01-29T03:48:31.035Z,8.60
2019-01-29T03:51:03.786Z,8.77
2019-01-29T03:53:38.123Z,8.30
2019-01-29T03:56:14.353Z,8.53
2019-01-29T03:58:47.754Z,8.50
2019-01-29T04:01:22.065Z,9.40
2019-01-29T04:03:53.808Z,9.33
2019-01-29T04:06:29.212Z,9.20
2019-01-29T04:09:00.949Z,9.97
2019-01-29T04:11:33.692Z,9.30
2019-01-29T04:14:05.644Z,9.73
2019-01-29T04:16:38.905Z,9.87
2019-01-29T04:19:17.411Z,10.37
2019-01-29T04:21:48.970Z,10.50
2019-01-29T04:24:21.927Z,10.57
2019-01-29T04:26:55.641Z,10.37
2019-01-29T04:29:32.857Z,10.77
2019-01-29T04:32:06.132Z,10.40
2019-01-29T04:34:39.727Z,11.03
2019-01-29T04:37:19.040Z,10.83
2019-01-29T04:39:51.413Z,10.77
2019-01-29T04:42:21.968Z,10.73
2019-01-29T04:44:55.707Z,11.13
2019-01-29T04:47:28.431Z,11.43
2019-01-29T04:50:01.075Z,11.70
2019-01-29T04:52:32.566Z,11.57
2019-01-29T04:55:04.096Z,11.57
2019-01-29T04:57:36.216Z,11.60
2019-01-29T05:00:27.769Z,11.50
2019-01-29T05:02:59.822Z,11.03
2019-01-29T05:05:33.298Z,11.70
2019-01-29T05:08:03.926Z,11.80
2019-01-29T05:10:35.630Z,12.43
2019-01-29T05:13:09.648Z,12.23
2019-01-29T05:15:43.943Z,12.33
2019-01-29T05:18:15.409Z,12.20
2019-01-29T05:20:49.611Z,12.23
2019-01-29T05:23:21.098Z,13.67
2019-01-29T05:25:52.867Z,13.33
2019-01-29T05:28:25.947Z,13.07
2019-01-29T05:30:58.855Z,13.33
2019-01-29T05:33:29.110Z,13.70
2019-01-29T05:36:01.994Z,13.63
2019-01-29T05:38:37.944Z,13.90
2019-01-29T05:41:10.267Z,14.30
2019-01-29T05:43:41.902Z,13.47
2019-01-29T05:46:14.391Z,13.93
2019-01-29T05:48:46.194Z,13.10
2019-01-29T05:51:18.901Z,13.80
2019-01-29T05:53:50.184Z,13.83
2019-01-29T05:56:28.565Z,13.93
2019-01-29T05:59:01.733Z,13.97
2019-01-29T06:01:35.217Z,14.27
2019-01-29T06:04:07.256Z,13.43
2019-01-29T06:06:46.295Z,13.97
2019-01-29T06:09:17.954Z,13.40
2019-01-29T06:11:50.379Z,14.93
2019-01-29T06:14:23.753Z,13.37
2019-01-29T06:16:55.385Z,13.73
2019-01-29T06:19:25.800Z,12.60
2019-01-29T06:21:57.984Z,12.43
2019-01-29T06:24:29.152Z,12.63
2019-01-29T06:27:02.987Z,12.67
2019-01-29T06:29:37.051Z,12.43
2019-01-29T06:32:10.807Z,12.40
2019-01-29T06:34:45.371Z,12.93
2019-01-29T06:37:16.943Z,12.43
2019-01-29T06:39:48.184Z,12.03
2019-01-29T06:42:20.250Z,12.03
2019-01-29T06:44:50.840Z,12.27
2019-01-29T06:47:24.989Z,13.40
2019-01-29T06:49:56.362Z,12.57
2019-01-29T06:52:28.204Z,12.70
2019-01-29T06:54:59.683Z,12.37
2019-01-29T06:57:31.961Z,12.50
2019-01-29T07:00:03.651Z,12.33
2019-01-29T07:02:37.064Z,12.17
2019-01-29T07:05:07.875Z,13.30
2019-01-29T07:07:38.928Z,12.00
2019-01-29T07:10:13.673Z,13.70
2019-01-29T07:12:47.565Z,13.13
2019-01-29T07:15:39.643Z,12.67
2019-01-29T07:18:31.167Z,13.07
2019-01-29T07:21:07.291Z,14.00
2019-01-29T07:23:41.247Z,12.93
2019-01-29T07:26:13.167Z,12.50
2019-01-29T07:28:43.852Z,12.97
2019-01-29T07:31:17.824Z,13.00
2019-01-29T07:33:54.891Z,13.60
2019-01-29T07:36:25.764Z,14.03
2019-01-29T07:38:59.941Z,14.23
2019-01-29T07:41:36.129Z,13.70
2019-01-29T07:44:08.316Z,13.83
2019-01-29T07:46:40.385Z,14.50
2019-01-29T07:49:11.749Z,15.20
2019-01-29T07:51:45.655Z,15.13
2019-01-29T07:54:17.401Z,15.07
2019-01-29T07:56:48.324Z,14.90
2019-01-29T07:59:32.382Z,14.90
2019-01-29T08:01:54.687Z,15.57
2019-01-29T08:04:33.435Z,14.50
2019-01-29T08:07:04.427Z,15.33
2019-01-29T08:09:37.145Z,15.73
2019-01-29T08:12:11.170Z,16.00
2019-01-29T08:14:43.221Z,15.17
2019-01-29T08:17:17.264Z,15.90
2019-01-29T08:19:49.456Z,16.93
2019-01-29T08:22:22.634Z,16.77
2019-01-29T08:25:01.709Z,17.37
2019-01-29T08:27:28.751Z,17.13
2019-01-29T08:29:59.093Z,18.13
2019-01-29T08:32:29.680Z,17.67
2019-01-29T08:35:02.930Z,18.67
2019-01-29T08:37:33.968Z,45.00
2019-01-29T08:40:09.084Z,26.73
2019-01-29T08:42:42.491Z,18.20
2019-01-29T08:45:14.389Z,17.77
2019-01-29T08:47:46.508Z,17.43
2019-01-29T08:50:22.106Z,17.33
2019-01-29T08:52:53.376Z,17.93
2019-01-29T08:55:28.464Z,18.10
2019-01-29T08:58:03.737Z,17.07
2019-01-29T09:00:38.089Z,17.17
2019-01-29T09:03:08.947Z,17.03
2019-01-29T09:05:50.173Z,17.70
2019-01-29T09:08:22.342Z,20.07
2019-01-29T09:10:53.539Z,18.27
2019-01-29T09:13:28.771Z,18.73
2019-01-29T09:16:00.719Z,18.60
2019-01-29T09:18:34.150Z,18.37
2019-01-29T09:21:06.597Z,16.80
2019-01-29T09:23:39.369Z,17.03
2019-01-29T09:26:11.806Z,15.73
2019-01-29T09:28:43.969Z,14.53
2019-01-29T09:31:16.522Z,14.10
2019-01-29T09:33:48.462Z,14.80
2019-01-29T09:36:20.588Z,14.80
2019-01-29T09:38:53.713Z,15.27
2019-01-29T09:41:25.169Z,17.33
2019-01-29T09:43:59.087Z,19.50
2019-01-29T09:46:31.235Z,16.40
2019-01-29T09:49:03.311Z,14.60
2019-01-29T09:51:38.233Z,14.73
2019-01-29T09:54:15.756Z,14.33
2019-01-29T09:56:54.840Z,14.73
2019-01-29T09:59:25.119Z,14.80
2019-01-29T10:01:56.616Z,13.67
2019-01-29T10:04:28.587Z,14.47
2019-01-29T10:07:00.858Z,13.20
2019-01-29T10:09:33.121Z,21.83
2019-01-29T10:12:05.660Z,13.43
2019-01-29T10:14:36.951Z,13.50
2019-01-29T10:17:09.641Z,13.47
2019-01-29T10:19:44.194Z,12.63
2019-01-29T10:22:17.121Z,11.53
2019-01-29T10:24:48.779Z,11.10
2019-01-29T10:27:20.527Z,11.50
2019-01-29T10:29:53.420Z,10.83
2019-01-29T10:32:26.499Z,10.77
2019-01-29T10:34:57.722Z,10.20
2019-01-29T10:37:30.220Z,9.13
2019-01-29T10:40:03.594Z,8.40
2019-01-29T10:42:36.243Z,6.17
2019-01-29T10:45:12.238Z,5.43
2019-01-29T10:47:44.781Z,5.23
2019-01-29T10:50:21.046Z,6.00
2019-01-29T10:52:56.390Z,5.30
2019-01-29T10:55:32.342Z,6.33
2019-01-29T10:58:02.995Z,4.70
2019-01-29T11:00:37.165Z,5.07
2019-01-29T11:03:20.605Z,5.20
2019-01-29T11:05:54.860Z,6.13
2019-01-29T11:08:26.636Z,6.80
2019-01-29T11:10:58.702Z,6.27
2019-01-29T11:13:30.436Z,6.87
2019-01-29T11:16:01.639Z,5.27
2019-01-29T11:18:33.064Z,4.97
2019-01-29T11:21:07.835Z,4.60
2019-01-29T11:23:42.408Z,4.47
2019-01-29T11:26:13.789Z,4.70
2019-01-29T11:28:45.485Z,5.33
2019-01-29T11:31:18.882Z,5.07
2019-01-29T11:33:50.272Z,4.70
2019-01-29T11:36:21.951Z,4.63
2019-01-29T11:38:55.951Z,37.93
2019-01-29T11:41:27.191Z,4.73
2019-01-29T11:44:00.594Z,5.57
2019-01-29T11:46:33.419Z,4.73
2019-01-29T11:49:05.772Z,4.70
2019-01-29T11:51:37.645Z,5.37
2019-01-29T11:54:10.519Z,5.00
2019-01-29T11:56:41.791Z,5.00
2019-01-29T11:59:14.588Z,4.50
2019-01-29T12:01:45.838Z,3.90
2019-01-29T12:04:19.110Z,4.20
2019-01-29T12:06:50.279Z,4.50
2019-01-29T12:09:23.392Z,4.40
2019-01-29T12:11:55.099Z,4.20
2019-01-29T12:14:33.102Z,3.93
2019-01-29T12:17:05.570Z,4.70
2019-01-29T12:19:38.784Z,3.70
2019-01-29T12:22:12.045Z,3.63
2019-01-29T12:24:44.603Z,3.90
2019-01-29T12:27:16.404Z,3.40
2019-01-29T12:29:48.809Z,3.53
2019-01-29T12:32:20.900Z,3.20
2019-01-29T12:34:51.961Z,3.27
2019-01-29T12:37:23.967Z,3.57
2019-01-29T12:39:58.049Z,3.67
2019-01-29T12:42:32.094Z,4.10
2019-01-29T12:45:06.079Z,3.40
2019-01-29T12:47:37.416Z,2.90
2019-01-29T12:50:12.520Z,2.13
2019-01-29T12:52:51.485Z,2.70
2019-01-29T12:55:23.204Z,2.40
2019-01-29T12:57:53.741Z,2.80
2019-01-29T13:00:26.727Z,3.30
2019-01-29T13:02:58.631Z,3.60
2019-01-29T13:05:32.721Z,3.40
2019-01-29T13:08:05.848Z,3.60
2019-01-29T13:10:38.509Z,3.33
2019-01-29T13:13:11.016Z,3.80
2019-01-29T13:15:42.761Z,3.13
2019-01-29T13:18:14.101Z,3.07
2019-01-29T13:20:46.969Z,2.67
2019-01-29T13:23:21.811Z,3.40
2019-01-29T13:25:55.997Z,3.57
2019-01-29T13:28:27.373Z,2.73
2019-01-29T13:31:02.258Z,2.93
2019-01-29T13:33:35.451Z,3.13
2019-01-29T13:36:08.681Z,3.30
2019-01-29T13:38:40.873Z,3.50
2019-01-29T13:41:13.512Z,3.07
2019-01-29T13:43:45.107Z,3.20
2019-01-29T13:46:16.969Z,3.17
2019-01-29T13:48:48.693Z,3.60
2019-01-29T13:51:23.030Z,3.33
2019-01-29T13:53:55.664Z,3.70
2019-01-29T13:56:38.579Z,3.57
2019-01-29T13:59:03.287Z,3.80
2019-01-29T14:01:36.064Z,3.53
2019-01-29T14:04:08.998Z,3.63
2019-01-29T14:06:52.522Z,4.00
2019-01-29T14:09:43.080Z,3.90
2019-01-29T14:12:30.560Z,3.80
2019-01-29T14:15:14.656Z,4.20
2019-01-29T14:18:08.029Z,4.20
2019-01-29T14:20:55.225Z,4.77
2019-01-29T14:23:28.854Z,4.67
2019-01-29T14:26:03.980Z,4.47
2019-01-29T14:28:36.598Z,4.90
2019-01-29T14:31:10.946Z,4.77
2019-01-29T14:33:44.428Z,5.13
2019-01-29T14:36:18.957Z,5.30
2019-01-29T14:39:50.061Z,5.50
2019-01-29T14:42:21.559Z,6.10
2019-01-29T14:44:56.544Z,5.97
2019-01-29T14:47:34.154Z,5.47
2019-01-29T14:50:05.165Z,5.33
2019-01-29T14:52:38.398Z,5.23
2019-01-29T14:55:11.764Z,5.10
2019-01-29T14:57:47.506Z,5.17
2019-01-29T15:00:25.273Z,5.50
2019-01-29T15:02:56.637Z,4.80
2019-01-29T15:05:29.450Z,4.70
2019-01-29T15:08:06.800Z,4.70
2019-01-29T15:10:39.286Z,4.97
2019-01-29T15:13:10.494Z,5.40
2019-01-29T15:15:47.424Z,5.30
2019-01-29T15:18:28.513Z,5.77
2019-01-29T15:21:00.562Z,5.60
2019-01-29T15:23:34.472Z,5.63
2019-01-29T15:26:05.701Z,6.07
2019-01-29T15:28:36.999Z,5.00
2019-01-29T15:31:10.473Z,4.00
2019-01-29T15:33:42.527Z,4.33
2019-01-29T15:36:13.764Z,4.00
2019-01-29T15:38:45.319Z,4.50
2019-01-29T15:41:15.754Z,4.73
2019-01-29T15:43:47.256Z,4.40
2019-01-29T15:46:21.610Z,4.70
2019-01-29T15:48:54.991Z,4.50
2019-01-29T15:51:26.856Z,4.40
2019-01-29T15:54:00.355Z,4.53
2019-01-29T15:56:32.879Z,4.40
2019-01-29T15:59:04.187Z,4.00
2019-01-29T16:01:37.104Z,4.50
2019-01-29T16:04:08.977Z,4.07
2019-01-29T16:06:42.727Z,4.43
2019-01-29T16:09:13.124Z,4.10
2019-01-29T16:11:45.591Z,4.20
2019-01-29T16:14:17.875Z,3.60
2019-01-29T16:17:08.295Z,4.27
2019-01-29T16:19:41.476Z,4.10
2019-01-29T16:22:13.669Z,4.03
2019-01-29T16:24:47.279Z,4.30
2019-01-29T16:27:22.824Z,4.17
2019-01-29T16:29:55.454Z,4.10
2019-01-29T16:32:28.688Z,4.40
2019-01-29T16:35:00.810Z,4.40
2019-01-29T16:37:34.024Z,4.13
2019-01-29T16:40:05.415Z,4.53
2019-01-29T16:42:39.062Z,4.40
2019-01-29T16:45:16.641Z,4.27
2019-01-29T16:47:48.599Z,4.03
2019-01-29T16:50:21.944Z,4.20
2019-01-29T16:52:54.086Z,4.10
2019-01-29T16:55:25.175Z,4.00
2019-01-29T16:57:57.512Z,4.63
2019-01-29T17:00:34.073Z,4.30
2019-01-29T17:03:07.871Z,4.40
2019-01-29T17:05:40.761Z,3.97
2019-01-29T17:08:15.762Z,4.00
2019-01-29T17:10:48.474Z,3.90
2019-01-29T17:13:20.761Z,3.73
2019-01-29T17:15:51.906Z,4.07
2019-01-29T17:18:24.774Z,3.83
2019-01-29T17:20:57.786Z,4.63
2019-01-29T17:23:29.351Z,4.43
2019-01-29T17:26:02.736Z,4.23
2019-01-29T17:28:35.146Z,4.17
2019-01-29T17:31:06.765Z,4.63
2019-01-29T17:33:40.482Z,4.70
2019-01-29T17:36:12.444Z,4.80
2019-01-29T17:38:45.965Z,4.40
2019-01-29T17:41:19.309Z,5.30
2019-01-29T17:43:50.925Z,5.00
2019-01-29T17:46:22.866Z,4.97
2019-01-29T17:48:56.057Z,4.03
2019-01-29T17:51:29.421Z,4.60
2019-01-29T17:54:02.557Z,4.40
2019-01-29T17:56:33.944Z,4.70
2019-01-29T17:59:06.591Z,4.40
2019-01-29T18:01:38.137Z,4.93
2019-01-29T18:04:11.327Z,4.63
2019-01-29T18:06:43.501Z,5.30
2019-01-29T18:09:15.377Z,5.90
2019-01-29T18:11:48.514Z,5.23
2019-01-29T18:14:20.301Z,5.83
2019-01-29T18:16:53.067Z,6.10
2019-01-29T18:19:27.432Z,6.17
2019-01-29T18:21:59.494Z,6.57
2019-01-29T18:24:32.250Z,6.70
2019-01-29T18:27:03.868Z,7.40
2019-01-29T18:29:36.004Z,6.37
2019-01-29T18:32:08.721Z,6.43
2019-01-29T18:34:40.052Z,6.10
2019-01-29T18:37:12.775Z,6.77
2019-01-29T18:39:44.035Z,7.30
2019-01-29T18:42:15.679Z,6.47
2019-01-29T18:44:46.981Z,6.93
2019-01-29T18:47:19.497Z,7.40
2019-01-29T18:49:51.587Z,7.07
2019-01-29T18:52:21.861Z,7.00
2019-01-29T18:54:52.260Z,6.63
2019-01-29T18:57:25.661Z,7.23
2019-01-29T18:59:58.171Z,7.03
2019-01-29T19:02:28.743Z,7.50
2019-01-29T19:05:01.677Z,6.73
2019-01-29T19:07:34.689Z,7.13
2019-01-29T19:10:06.609Z,7.33
2019-01-29T19:12:41.271Z,7.47
2019-01-29T19:15:15.201Z,7.27
2019-01-29T19:17:46.473Z,7.43
2019-01-29T19:20:24.032Z,7.47
2019-01-29T19:22:58.372Z,7.50
2019-01-29T19:25:32.929Z,7.30
2019-01-29T19:28:07.455Z,6.97
2019-01-29T19:30:39.057Z,7.47
2019-01-29T19:33:10.529Z,8.30
2019-01-29T19:35:42.018Z,7.13
2019-01-29T19:38:13.611Z,7.47
2019-01-29T19:40:46.261Z,7.67
2019-01-29T19:43:18.061Z,7.43
2019-01-29T19:45:56.497Z,7.17
2019-01-29T19:48:29.846Z,7.17
2019-01-29T19:51:00.672Z,7.40
2019-01-29T19:53:32.160Z,6.97
2019-01-29T19:56:03.498Z,7.37
2019-01-29T19:58:36.029Z,7.00
2019-01-29T20:01:08.108Z,6.83
2019-01-29T20:03:39.259Z,6.93
2019-01-29T20:06:11.696Z,6.87
2019-01-29T20:08:42.568Z,6.60
2019-01-29T20:11:21.208Z,6.43
2019-01-29T20:14:01.282Z,6.43
2019-01-29T20:16:34.526Z,6.67
2019-01-29T20:19:07.206Z,6.40
2019-01-29T20:21:39.475Z,6.23
2019-01-29T20:24:10.682Z,6.00
2019-01-29T20:26:46.031Z,5.80
2019-01-29T20:29:27.431Z,6.37
2019-01-29T20:32:00.471Z,6.37
2019-01-29T20:34:31.568Z,6.10
2019-01-29T20:37:03.980Z,6.17
2019-01-29T20:39:35.651Z,5.77
2019-01-29T20:42:07.288Z,5.70
2019-01-29T20:44:38.242Z,6.20
2019-01-29T20:47:09.485Z,5.90
2019-01-29T20:49:39.934Z,6.00
2019-01-29T20:52:12.308Z,5.43
2019-01-29T20:54:43.001Z,5.67
2019-01-29T20:57:14.169Z,5.53
2019-01-29T20:59:44.883Z,5.60
2019-01-29T21:02:17.030Z,5.70
2019-01-29T21:04:48.691Z,5.10
2019-01-29T21:07:20.795Z,5.37
2019-01-29T21:09:53.825Z,4.83
2019-01-29T21:12:24.649Z,4.90
2019-01-29T21:14:56.261Z,5.17
2019-01-29T21:17:27.964Z,4.77
2019-01-29T21:20:02.165Z,4.87
2019-01-29T21:22:33.300Z,4.83
2019-01-29T21:25:06.495Z,4.20
2019-01-29T21:27:39.750Z,4.57
2019-01-29T21:30:18.812Z,4.73
2019-01-29T21:32:50.334Z,4.70
2019-01-29T21:35:23.261Z,5.10
2019-01-29T21:38:00.855Z,4.90
2019-01-29T21:40:32.166Z,4.90
2019-01-29T21:43:02.746Z,5.80
2019-01-29T21:45:34.436Z,5.47
2019-01-29T21:48:08.756Z,6.10
2019-01-29T21:50:40.675Z,6.00
2019-01-29T21:53:12.294Z,6.17
2019-01-29T21:55:44.416Z,6.00
2019-01-29T21:58:18.108Z,6.77
2019-01-29T22:00:48.533Z,7.10
2019-01-29T22:03:19.679Z,7.37
2019-01-29T22:05:50.746Z,6.70
2019-01-29T22:08:24.123Z,6.87
2019-01-29T22:10:54.855Z,7.27
2019-01-29T22:13:25.902Z,7.60
2019-01-29T22:15:57.005Z,7.80
2019-01-29T22:18:28.418Z,7.30
2019-01-29T22:21:01.297Z,7.70
2019-01-29T22:23:33.756Z,7.40
2019-01-29T22:26:04.926Z,7.50
2019-01-29T22:28:37.000Z,7.60
2019-01-29T22:31:08.554Z,7.73
2019-01-29T22:33:39.221Z,7.97
2019-01-29T22:36:13.001Z,7.77
2019-01-29T22:38:48.200Z,8.20
2019-01-29T22:41:19.348Z,7.77
2019-01-29T22:43:49.712Z,7.90
2019-01-29T22:46:20.026Z,8.23
2019-01-29T22:48:52.305Z,9.37
2019-01-29T22:51:23.928Z,7.70
2019-01-29T22:53:55.405Z,7.37
2019-01-29T22:56:25.995Z,8.20
2019-01-29T22:58:56.892Z,8.17
2019-01-29T23:01:37.437Z,8.43
2019-01-29T23:04:24.621Z,8.13
2019-01-29T23:07:22.725Z,8.00
2019-01-29T23:09:56.981Z,8.23
2019-01-29T23:12:28.596Z,7.97
2019-01-29T23:15:02.198Z,8.00
2019-01-29T23:17:33.546Z,7.83
2019-01-29T23:20:06.544Z,8.60
2019-01-29T23:22:36.822Z,7.80
2019-01-29T23:25:10.260Z,8.83
2019-01-29T23:27:44.767Z,7.70
2019-01-29T23:30:19.696Z,7.97
2019-01-29T23:32:54.045Z,8.00
2019-01-29T23:35:25.860Z,8.30
2019-01-29T23:37:57.411Z,8.20
2019-01-29T23:40:30.118Z,7.97
2019-01-29T23:43:04.415Z,8.07
2019-01-29T23:45:35.413Z,8.23
2019-01-29T23:48:06.641Z,8.33
2019-01-29T23:50:37.854Z,7.47
2019-01-29T23:53:10.613Z,7.63
2019-01-29T23:55:45.632Z,7.97
2019-01-29T23:58:16.918Z,7.80
